createdAt,value
2023-02-24T00:02:06.455Z,15.40
2023-02-24T00:04:41.134Z,16.00
2023-02-24T00:07:12.712Z,7.63
2023-02-24T00:09:40.533Z,11.47
2023-02-24T00:12:13.339Z,11.23
2023-02-24T00:14:45.146Z,6.90
2023-02-24T00:17:17.071Z,7.23
2023-02-24T00:19:46.400Z,12.93
2023-02-24T00:22:13.869Z,6.50
2023-02-24T00:24:42.166Z,7.43
2023-02-24T00:27:12.206Z,8.90
2023-02-24T00:29:42.181Z,7.63
2023-02-24T00:32:30.475Z,6.23
2023-02-24T00:34:58.100Z,4.77
2023-02-24T00:37:25.810Z,8.10
2023-02-24T00:39:58.581Z,4.77
2023-02-24T00:42:26.181Z,6.63
2023-02-24T00:44:54.186Z,5.80
2023-02-24T00:47:22.561Z,5.27
2023-02-24T00:49:50.446Z,7.57
2023-02-24T00:52:21.164Z,5.67
2023-02-24T00:54:50.978Z,5.10
2023-02-24T00:57:21.396Z,6.23
2023-02-24T00:59:51.859Z,4.83
2023-02-24T01:02:20.709Z,4.57
2023-02-24T01:04:50.016Z,8.27
2023-02-24T01:07:17.987Z,7.00
2023-02-24T01:09:45.632Z,5.27
2023-02-24T01:12:32.361Z,5.30
2023-02-24T01:15:03.024Z,5.17
2023-02-24T01:17:33.097Z,4.80
2023-02-24T01:20:15.123Z,6.23
2023-02-24T01:22:47.623Z,5.73
2023-02-24T01:25:19.017Z,6.00
2023-02-24T01:27:46.703Z,5.70
2023-02-24T01:30:16.239Z,4.90
2023-02-24T01:32:46.981Z,6.53
2023-02-24T01:35:15.158Z,4.40
2023-02-24T01:37:43.251Z,4.37
2023-02-24T01:40:20.814Z,6.60
2023-02-24T01:42:49.507Z,5.67
2023-02-24T01:45:22.077Z,3.77
2023-02-24T01:47:51.211Z,5.23
2023-02-24T01:50:22.057Z,5.73
2023-02-24T01:52:56.235Z,4.27
2023-02-24T01:55:33.842Z,4.23
2023-02-24T01:58:09.632Z,6.67
2023-02-24T02:00:44.944Z,5.27
2023-02-24T02:03:26.137Z,5.40
2023-02-24T02:06:01.605Z,5.80
2023-02-24T02:08:30.118Z,4.50
2023-02-24T02:11:06.070Z,5.87
2023-02-24T02:13:36.823Z,6.30
2023-02-24T02:16:35.230Z,6.50
2023-02-24T02:19:11.307Z,6.67
2023-02-24T02:22:02.478Z,6.37
2023-02-24T02:24:44.696Z,5.50
2023-02-24T02:27:29.406Z,8.93
2023-02-24T02:30:14.055Z,5.17
2023-02-24T02:33:06.954Z,4.57
2023-02-24T02:35:54.395Z,7.60
2023-02-24T02:38:38.104Z,5.77
2023-02-24T02:41:28.549Z,6.27
2023-02-24T02:44:34.051Z,6.13
2023-02-24T02:47:18.845Z,10.97
2023-02-24T02:49:56.774Z,4.87
2023-02-24T02:52:34.928Z,6.37
2023-02-24T02:55:12.042Z,6.07
2023-02-24T02:57:47.283Z,5.93
2023-02-24T03:00:21.520Z,9.17
2023-02-24T03:02:55.374Z,7.77
2023-02-24T03:05:32.008Z,8.80
2023-02-24T03:08:04.784Z,5.43
2023-02-24T03:10:34.432Z,8.07
2023-02-24T03:13:06.908Z,5.70
2023-02-24T03:15:35.453Z,8.50
2023-02-24T03:18:10.517Z,5.80
2023-02-24T03:21:11.867Z,6.03
2023-02-24T03:23:51.560Z,5.20
2023-02-24T03:26:41.543Z,6.93
2023-02-24T03:29:52.776Z,7.47
2023-02-24T03:32:56.615Z,5.50
2023-02-24T03:35:29.795Z,5.83
2023-02-24T03:37:59.996Z,4.17
2023-02-24T03:40:35.973Z,6.40
2023-02-24T03:43:26.105Z,7.63
2023-02-24T03:45:56.662Z,5.40
2023-02-24T03:48:26.167Z,6.63
2023-02-24T03:50:53.874Z,6.77
2023-02-24T03:53:44.432Z,4.73
2023-02-24T03:56:48.609Z,8.07
2023-02-24T03:59:57.444Z,5.37
2023-02-24T04:02:31.298Z,4.30
2023-02-24T04:05:22.269Z,5.13
2023-02-24T04:08:01.327Z,6.53
2023-02-24T04:10:53.925Z,4.20
2023-02-24T04:13:48.062Z,6.80
2023-02-24T04:16:40.713Z,6.97
2023-02-24T04:19:19.000Z,4.90
2023-02-24T04:21:50.867Z,5.83
2023-02-24T04:24:29.305Z,12.30
2023-02-24T04:27:01.968Z,6.57
2023-02-24T04:29:40.885Z,5.83
2023-02-24T04:32:12.903Z,8.17
2023-02-24T04:34:41.980Z,6.47
2023-02-24T04:37:10.032Z,5.23
2023-02-24T04:39:38.572Z,6.47
2023-02-24T04:42:10.951Z,4.33
2023-02-24T04:44:38.491Z,6.77
2023-02-24T04:47:05.997Z,5.67
2023-02-24T04:49:34.096Z,7.23
2023-02-24T04:52:01.561Z,6.83
2023-02-24T04:54:29.772Z,6.20
2023-02-24T04:56:59.198Z,7.57
2023-02-24T04:59:28.333Z,5.70
2023-02-24T05:01:55.793Z,6.97
2023-02-24T05:04:24.018Z,9.13
2023-02-24T05:06:51.522Z,10.77
2023-02-24T05:09:19.474Z,7.20
2023-02-24T05:11:50.768Z,6.77
2023-02-24T05:14:25.047Z,7.33
2023-02-24T05:16:53.034Z,9.73
2023-02-24T05:19:39.698Z,7.23
2023-02-24T05:22:07.382Z,8.40
2023-02-24T05:24:34.985Z,6.77
2023-02-24T05:27:03.923Z,8.13
2023-02-24T05:29:37.077Z,9.50
2023-02-24T05:32:05.803Z,5.47
2023-02-24T05:34:35.187Z,7.20
2023-02-24T05:37:10.216Z,7.27
2023-02-24T05:39:38.433Z,7.50
2023-02-24T05:42:06.717Z,5.20
2023-02-24T05:44:35.745Z,5.57
2023-02-24T05:47:05.627Z,8.37
2023-02-24T05:49:35.775Z,8.83
2023-02-24T05:52:09.052Z,6.50
2023-02-24T05:54:44.171Z,64.17
2023-02-24T05:57:24.840Z,27.53
2023-02-24T05:59:53.214Z,17.33
2023-02-24T06:02:27.505Z,9.33
2023-02-24T06:04:55.819Z,8.00
2023-02-24T06:07:28.631Z,9.43
2023-02-24T06:09:58.717Z,6.87
2023-02-24T06:12:30.088Z,10.17
2023-02-24T06:15:00.412Z,10.57
2023-02-24T06:17:29.367Z,7.83
2023-02-24T06:19:56.880Z,8.53
2023-02-24T06:22:26.404Z,10.30
2023-02-24T06:24:56.840Z,8.60
2023-02-24T06:27:25.319Z,6.60
2023-02-24T06:29:55.298Z,8.93
2023-02-24T06:32:26.530Z,15.43
2023-02-24T06:34:55.230Z,16.87
2023-02-24T06:37:23.356Z,11.47
2023-02-24T06:39:51.199Z,38.77
2023-02-24T06:42:19.089Z,14.27
2023-02-24T06:44:47.693Z,14.53
2023-02-24T06:47:17.989Z,12.10
2023-02-24T06:49:45.684Z,10.33
2023-02-24T06:52:19.052Z,15.17
2023-02-24T06:54:49.766Z,7.73
2023-02-24T06:57:17.842Z,7.80
2023-02-24T06:59:46.196Z,11.03
2023-02-24T07:02:17.696Z,8.17
2023-02-24T07:04:45.364Z,9.33
2023-02-24T07:07:14.471Z,10.23
2023-02-24T07:09:42.753Z,7.87
2023-02-24T07:12:12.698Z,21.07
2023-02-24T07:14:40.738Z,7.57
2023-02-24T07:17:08.566Z,11.23
2023-02-24T07:19:36.993Z,9.80
2023-02-24T07:22:04.600Z,12.43
2023-02-24T07:24:36.943Z,10.07
2023-02-24T07:27:12.078Z,13.37
2023-02-24T07:29:40.387Z,11.27
2023-02-24T07:32:11.373Z,7.67
2023-02-24T07:34:40.592Z,10.90
2023-02-24T07:37:10.636Z,50.23
2023-02-24T07:39:39.979Z,9.87
2023-02-24T07:42:15.403Z,13.70
2023-02-24T07:44:49.134Z,12.10
2023-02-24T07:47:16.910Z,13.37
2023-02-24T07:49:45.635Z,11.17
2023-02-24T07:52:13.341Z,12.77
2023-02-24T07:54:40.834Z,12.37
2023-02-24T07:57:13.507Z,8.07
2023-02-24T07:59:47.607Z,9.93
2023-02-24T08:02:15.914Z,11.97
2023-02-24T08:04:50.098Z,10.23
2023-02-24T08:07:25.223Z,16.20
2023-02-24T08:10:10.437Z,14.33
2023-02-24T08:12:42.844Z,12.93
2023-02-24T08:15:17.402Z,10.43
2023-02-24T08:17:47.513Z,8.87
2023-02-24T08:20:15.763Z,11.57
2023-02-24T08:22:52.023Z,11.00
2023-02-24T08:25:35.564Z,10.23
2023-02-24T08:28:09.586Z,12.73
2023-02-24T08:30:47.057Z,16.17
2023-02-24T08:33:22.510Z,14.43
2023-02-24T08:36:02.134Z,13.07
2023-02-24T08:38:51.867Z,17.57
2023-02-24T08:41:29.226Z,11.87
2023-02-24T08:43:56.807Z,15.57
2023-02-24T08:46:32.822Z,18.47
2023-02-24T08:49:01.180Z,20.03
2023-02-24T08:51:35.162Z,12.83
2023-02-24T08:54:11.452Z,14.10
2023-02-24T08:56:49.173Z,18.23
2023-02-24T08:59:54.486Z,17.40
2023-02-24T09:02:23.256Z,18.90
2023-02-24T09:05:14.257Z,20.10
2023-02-24T09:07:42.850Z,18.90
2023-02-24T09:10:19.086Z,18.30
2023-02-24T09:12:49.046Z,17.77
2023-02-24T09:15:16.704Z,19.53
2023-02-24T09:17:45.970Z,18.00
2023-02-24T09:20:56.380Z,21.63
2023-02-24T09:23:30.026Z,24.60
2023-02-24T09:25:58.013Z,21.83
2023-02-24T09:28:29.185Z,24.90
2023-02-24T09:31:00.466Z,17.20
2023-02-24T09:33:39.563Z,19.40
2023-02-24T09:36:28.237Z,19.87
2023-02-24T09:39:00.803Z,20.40
2023-02-24T09:42:06.089Z,24.80
2023-02-24T09:44:41.209Z,20.20
2023-02-24T09:47:42.389Z,14.37
2023-02-24T09:50:51.284Z,16.77
2023-02-24T09:53:17.984Z,20.63
2023-02-24T09:56:00.556Z,20.67
2023-02-24T09:59:10.431Z,19.60
2023-02-24T10:02:05.334Z,18.13
2023-02-24T10:05:07.944Z,27.73
2023-02-24T10:07:41.847Z,19.40
2023-02-24T10:10:28.076Z,25.90
2023-02-24T10:13:17.069Z,21.03
2023-02-24T10:15:59.339Z,19.73
2023-02-24T10:19:01.253Z,24.97
2023-02-24T10:21:49.590Z,25.60
2023-02-24T10:24:29.412Z,19.97
2023-02-24T10:27:01.210Z,34.67
2023-02-24T10:30:28.052Z,29.47
2023-02-24T10:33:00.586Z,24.57
2023-02-24T10:35:37.877Z,23.10
2023-02-24T10:38:05.900Z,23.33
2023-02-24T10:40:57.178Z,22.03
2023-02-24T10:43:31.521Z,25.73
2023-02-24T10:46:17.156Z,23.73
2023-02-24T10:49:01.040Z,20.83
2023-02-24T10:51:40.455Z,25.03
2023-02-24T10:54:48.678Z,18.77
2023-02-24T10:57:38.265Z,17.20
2023-02-24T11:00:51.980Z,21.07
2023-02-24T11:03:36.077Z,21.70
2023-02-24T11:06:04.473Z,19.00
2023-02-24T11:08:48.129Z,27.93
2023-02-24T11:11:30.715Z,21.03
2023-02-24T11:14:20.181Z,32.50
2023-02-24T11:17:12.638Z,64.27
2023-02-24T11:20:01.950Z,29.80
2023-02-24T11:22:37.120Z,25.33
2023-02-24T11:25:23.712Z,37.20
2023-02-24T11:27:55.950Z,22.23
2023-02-24T11:30:56.775Z,20.77
2023-02-24T11:33:57.779Z,23.83
2023-02-24T11:36:46.472Z,36.80
2023-02-24T11:39:42.171Z,26.30
2023-02-24T11:42:27.455Z,21.97
2023-02-24T11:45:22.773Z,22.33
2023-02-24T11:48:03.269Z,22.90
2023-02-24T11:50:59.216Z,25.80
2023-02-24T11:53:56.688Z,28.43
2023-02-24T11:56:40.098Z,26.47
2023-02-24T11:59:36.508Z,18.87
2023-02-24T12:02:17.336Z,24.50
2023-02-24T12:05:13.544Z,20.57
2023-02-24T12:07:56.636Z,17.93
2023-02-24T12:10:39.069Z,18.97
2023-02-24T12:13:16.482Z,16.93
2023-02-24T12:15:59.547Z,19.57
2023-02-24T12:18:34.972Z,19.50
2023-02-24T12:21:36.423Z,22.90
2023-02-24T12:24:08.609Z,22.90
2023-02-24T12:27:22.908Z,21.10
2023-02-24T12:30:34.260Z,24.13
2023-02-24T12:33:35.516Z,21.67
2023-02-24T12:36:20.919Z,20.43
2023-02-24T12:39:01.996Z,26.87
2023-02-24T12:42:05.545Z,25.13
2023-02-24T12:45:32.049Z,24.07
2023-02-24T12:48:46.842Z,19.57
2023-02-24T12:51:47.432Z,19.50
2023-02-24T12:54:30.302Z,17.57
2023-02-24T12:57:31.240Z,21.93
2023-02-24T13:00:09.849Z,26.13
2023-02-24T13:03:00.341Z,34.73
2023-02-24T13:05:41.989Z,24.37
2023-02-24T13:08:36.965Z,23.73
2023-02-24T13:11:38.597Z,23.43
2023-02-24T13:14:41.062Z,22.27
2023-02-24T13:17:11.247Z,26.33
2023-02-24T13:19:41.643Z,23.70
2023-02-24T13:22:16.813Z,19.70
2023-02-24T13:25:10.364Z,27.67
2023-02-24T13:27:44.880Z,24.80
2023-02-24T13:30:12.667Z,22.57
2023-02-24T13:32:47.695Z,26.40
2023-02-24T13:35:18.071Z,26.80
2023-02-24T13:37:48.172Z,23.50
2023-02-24T13:40:22.665Z,31.07
2023-02-24T13:43:04.812Z,31.93
2023-02-24T13:45:40.079Z,23.67
2023-02-24T13:48:37.245Z,23.07
2023-02-24T13:51:50.217Z,22.70
2023-02-24T13:54:20.257Z,20.37
2023-02-24T13:56:48.490Z,23.17
2023-02-24T13:59:52.076Z,19.23
2023-02-24T14:02:25.927Z,26.13
2023-02-24T14:04:57.126Z,22.83
2023-02-24T14:07:36.287Z,25.10
2023-02-24T14:10:21.620Z,21.70
2023-02-24T14:12:51.294Z,21.63
2023-02-24T14:15:26.700Z,22.53
2023-02-24T14:18:04.765Z,19.63
2023-02-24T14:20:37.530Z,22.33
2023-02-24T14:23:31.969Z,20.50
2023-02-24T14:26:11.728Z,19.60
2023-02-24T14:28:40.978Z,19.63
2023-02-24T14:31:17.559Z,20.67
2023-02-24T14:33:46.570Z,23.53
2023-02-24T14:36:32.189Z,24.20
2023-02-24T14:39:19.393Z,19.47
2023-02-24T14:41:49.918Z,22.90
2023-02-24T14:44:29.431Z,19.43
2023-02-24T14:47:02.119Z,20.93
2023-02-24T14:49:35.656Z,21.57
2023-02-24T14:52:16.110Z,20.53
2023-02-24T14:55:18.454Z,24.23
2023-02-24T14:57:54.028Z,24.27
2023-02-24T15:00:30.282Z,23.13
2023-02-24T15:03:15.544Z,21.00
2023-02-24T15:05:46.190Z,20.47
2023-02-24T15:08:32.157Z,27.97
2023-02-24T15:10:59.908Z,24.57
2023-02-24T15:13:42.330Z,24.20
2023-02-24T15:16:31.966Z,30.80
2023-02-24T15:19:01.972Z,26.50
2023-02-24T15:21:40.411Z,39.77
2023-02-24T15:24:31.020Z,38.57
2023-02-24T15:27:02.856Z,27.53
2023-02-24T15:29:32.137Z,29.77
2023-02-24T15:32:01.296Z,26.10
2023-02-24T15:34:32.967Z,28.37
2023-02-24T15:37:12.674Z,29.47
2023-02-24T15:39:44.547Z,27.83
2023-02-24T15:42:35.290Z,33.30
2023-02-24T15:45:07.789Z,30.63
2023-02-24T15:47:46.333Z,24.60
2023-02-24T15:50:14.326Z,29.90
2023-02-24T15:52:42.975Z,36.60
2023-02-24T15:55:18.711Z,34.97
2023-02-24T15:57:47.624Z,33.03
2023-02-24T16:00:21.471Z,38.00
2023-02-24T16:02:52.028Z,41.37
2023-02-24T16:05:19.667Z,41.80
2023-02-24T16:07:48.572Z,44.50
2023-02-24T16:10:29.170Z,35.03
2023-02-24T16:13:02.449Z,76.90
2023-02-24T16:15:39.301Z,94.40
2023-02-24T16:18:20.975Z,117.50
2023-02-24T16:20:57.657Z,141.27
2023-02-24T16:23:27.464Z,96.10
2023-02-24T16:26:01.480Z,122.43
2023-02-24T16:28:30.945Z,122.73
2023-02-24T16:31:03.264Z,129.67
2023-02-24T16:33:51.851Z,77.27
2023-02-24T16:36:25.781Z,62.63
2023-02-24T16:38:53.857Z,45.43
2023-02-24T16:41:21.611Z,51.23
2023-02-24T16:43:49.392Z,49.23
2023-02-24T16:46:22.619Z,53.63
2023-02-24T16:48:53.492Z,49.00
2023-02-24T16:51:22.993Z,51.87
2023-02-24T16:53:51.308Z,45.73
2023-02-24T16:56:21.286Z,46.93
2023-02-24T16:58:49.250Z,48.30
2023-02-24T17:01:21.486Z,46.60
2023-02-24T17:03:54.738Z,55.70
2023-02-24T17:06:25.057Z,54.80
2023-02-24T17:08:55.154Z,63.20
2023-02-24T17:11:28.679Z,64.10
2023-02-24T17:13:56.244Z,60.47
2023-02-24T17:16:24.497Z,65.30
2023-02-24T17:18:52.756Z,72.70
2023-02-24T17:21:20.771Z,70.97
2023-02-24T17:23:48.605Z,96.57
2023-02-24T17:26:16.596Z,118.07
2023-02-24T17:28:46.174Z,56.93
2023-02-24T17:31:17.025Z,61.70
2023-02-24T17:33:44.671Z,64.40
2023-02-24T17:36:14.784Z,72.50
2023-02-24T17:38:42.318Z,84.57
2023-02-24T17:41:10.659Z,66.83
2023-02-24T17:43:42.293Z,125.13
2023-02-24T17:46:10.732Z,76.67
2023-02-24T17:48:38.906Z,124.70
2023-02-24T17:51:07.964Z,123.30
2023-02-24T17:53:36.522Z,98.03
2023-02-24T17:56:08.450Z,90.00
2023-02-24T17:58:40.784Z,92.80
2023-02-24T18:01:16.013Z,100.57
2023-02-24T18:03:43.683Z,116.70
2023-02-24T18:06:14.465Z,91.47
2023-02-24T18:08:43.765Z,118.07
2023-02-24T18:11:21.503Z,121.07
2023-02-24T18:13:53.217Z,129.70
2023-02-24T18:16:22.445Z,156.73
2023-02-24T18:18:51.681Z,112.57
2023-02-24T18:21:20.884Z,111.07
2023-02-24T18:23:49.779Z,121.00
2023-02-24T18:26:18.298Z,95.60
2023-02-24T18:28:45.937Z,144.33
2023-02-24T18:31:17.936Z,95.97
2023-02-24T18:33:46.321Z,102.30
2023-02-24T18:36:17.087Z,87.40
2023-02-24T18:38:46.527Z,143.60
2023-02-24T18:41:21.875Z,66.00
2023-02-24T18:43:56.966Z,107.70
2023-02-24T18:46:29.517Z,83.17
2023-02-24T18:49:00.934Z,75.13
2023-02-24T18:51:31.709Z,115.67
2023-02-24T18:54:01.943Z,69.07
2023-02-24T18:56:35.164Z,49.77
2023-02-24T18:59:05.710Z,48.83
2023-02-24T19:01:39.448Z,67.37
2023-02-24T19:04:10.035Z,72.93
2023-02-24T19:06:41.462Z,55.03
2023-02-24T19:09:12.306Z,45.70
2023-02-24T19:11:41.783Z,59.67
2023-02-24T19:14:13.617Z,55.27
2023-02-24T19:16:42.101Z,57.27
2023-02-24T19:19:16.765Z,60.47
2023-02-24T19:21:49.648Z,59.80
2023-02-24T19:24:18.464Z,63.10
2023-02-24T19:26:49.535Z,60.87
2023-02-24T19:29:18.543Z,57.43
2023-02-24T19:31:47.835Z,59.13
2023-02-24T19:34:16.689Z,56.57
2023-02-24T19:36:48.954Z,54.37
2023-02-24T19:39:19.827Z,55.70
2023-02-24T19:42:11.475Z,58.13
2023-02-24T19:44:39.991Z,58.93
2023-02-24T19:47:08.437Z,60.27
2023-02-24T19:49:38.930Z,60.37
2023-02-24T19:52:07.987Z,68.37
2023-02-24T19:54:43.017Z,65.73
2023-02-24T19:57:11.929Z,62.43
2023-02-24T19:59:46.327Z,67.23
2023-02-24T20:02:17.164Z,51.80
2023-02-24T20:04:45.196Z,54.70
2023-02-24T20:07:12.935Z,60.40
2023-02-24T20:09:45.436Z,55.33
2023-02-24T20:12:16.055Z,57.27
2023-02-24T20:14:49.735Z,59.53
2023-02-24T20:17:17.831Z,54.33
2023-02-24T20:19:56.140Z,60.37
2023-02-24T20:22:27.013Z,45.80
2023-02-24T20:24:55.167Z,44.97
2023-02-24T20:27:24.279Z,46.00
2023-02-24T20:29:53.673Z,47.47
2023-02-24T20:32:24.124Z,49.57
2023-02-24T20:34:53.235Z,47.07
2023-02-24T20:37:21.466Z,51.30
2023-02-24T20:39:49.836Z,48.83
2023-02-24T20:42:19.326Z,45.83
2023-02-24T20:44:50.409Z,46.60
2023-02-24T20:47:32.064Z,40.90
2023-02-24T20:50:03.499Z,39.33
2023-02-24T20:52:34.450Z,42.27
2023-02-24T20:55:50.506Z,47.73
2023-02-24T20:58:19.979Z,38.17
2023-02-24T21:00:50.735Z,42.20
2023-02-24T21:03:19.412Z,40.33
2023-02-24T21:06:09.658Z,38.90
2023-02-24T21:08:40.671Z,42.20
2023-02-24T21:11:10.986Z,43.63
2023-02-24T21:13:47.338Z,36.33
2023-02-24T21:16:18.783Z,36.73
2023-02-24T21:18:51.844Z,35.80
2023-02-24T21:21:40.899Z,34.60
2023-02-24T21:24:09.356Z,35.97
2023-02-24T21:26:36.918Z,34.27
2023-02-24T21:29:04.994Z,34.33
2023-02-24T21:31:33.136Z,33.07
2023-02-24T21:34:01.287Z,37.13
2023-02-24T21:36:30.899Z,35.30
2023-02-24T21:39:03.099Z,34.13
2023-02-24T21:41:30.756Z,34.10
2023-02-24T21:44:00.791Z,31.43
2023-02-24T21:46:29.602Z,33.77
2023-02-24T21:48:59.765Z,32.83
2023-02-24T21:51:29.261Z,32.07
2023-02-24T21:53:57.929Z,28.47
2023-02-24T21:56:29.696Z,32.27
2023-02-24T21:59:03.576Z,29.03
2023-02-24T22:01:41.264Z,29.90
2023-02-24T22:04:16.511Z,31.43
2023-02-24T22:06:47.191Z,32.73
2023-02-24T22:09:20.146Z,35.40
2023-02-24T22:11:49.468Z,50.20
2023-02-24T22:14:18.878Z,62.13
2023-02-24T22:16:46.389Z,50.73
2023-02-24T22:19:15.408Z,54.33
2023-02-24T22:21:43.193Z,51.33
2023-02-24T22:24:15.174Z,58.13
2023-02-24T22:26:43.895Z,49.63
2023-02-24T22:29:12.149Z,47.90
2023-02-24T22:31:44.233Z,49.83
2023-02-24T22:34:13.146Z,52.37
2023-02-24T22:36:40.623Z,51.43
2023-02-24T22:39:09.385Z,50.30
2023-02-24T22:41:38.308Z,53.20
2023-02-24T22:44:06.951Z,44.70
2023-02-24T22:46:38.154Z,38.23
2023-02-24T22:49:06.888Z,32.03
2023-02-24T22:51:35.493Z,32.53
2023-02-24T22:54:03.608Z,30.03
2023-02-24T22:56:31.782Z,35.07
2023-02-24T22:59:00.638Z,33.43
2023-02-24T23:01:35.019Z,31.80
2023-02-24T23:04:14.946Z,30.13
2023-02-24T23:06:43.763Z,34.33
2023-02-24T23:09:11.537Z,37.33
2023-02-24T23:11:42.017Z,36.70
2023-02-24T23:14:16.431Z,30.77
2023-02-24T23:16:47.334Z,35.47
2023-02-24T23:19:19.859Z,29.77
2023-02-24T23:21:53.452Z,33.20
2023-02-24T23:24:22.549Z,34.93
2023-02-24T23:26:57.493Z,34.93
2023-02-24T23:29:27.656Z,39.47
2023-02-24T23:31:55.573Z,45.00
2023-02-24T23:34:23.317Z,39.50
2023-02-24T23:36:51.174Z,38.30
2023-02-24T23:39:25.539Z,41.03
2023-02-24T23:41:57.507Z,33.50
2023-02-24T23:44:26.321Z,32.53
2023-02-24T23:46:54.772Z,37.00
2023-02-24T23:49:22.186Z,29.17
2023-02-24T23:51:49.698Z,31.57
2023-02-24T23:54:18.988Z,30.83
2023-02-24T23:56:47.004Z,30.37
2023-02-24T23:59:15.196Z,28.37
